Time;durP1;ratioP1;P1;durP2;ratioP2;P2;SDS_P1;SDS_P2;PMS_P1;PMS_P2;Temp;Humidity;BMP_temperature;BMP_pressure;BME280_temperature;BME280_humidity;BME280_pressure;Samples;Min_cycle;Max_cycle;Signal;HPM_P1;HPM_P2
2022/03/25 00:01:41;;;;;;;54.57;23.90;;;;;;;-145.18;100.00;46705.31;5069769;28;20025;-64
2022/03/25 00:04:07;;;;;;;48.97;24.17;;;;;;;-145.18;100.00;46685.78;5070361;28;20301;-64
2022/03/25 00:06:32;;;;;;;44.97;22.77;;;;;;;-145.18;100.00;46722.91;5069229;28;20297;-64
2022/03/25 00:08:57;;;;;;;45.47;23.73;;;;;;;-145.18;100.00;46715.09;5070351;28;20058;-64
2022/03/25 00:11:23;;;;;;;53.63;24.60;;;;;;;-145.18;100.00;46707.28;5069588;28;20374;-64
2022/03/25 00:13:49;;;;;;;47.80;23.77;;;;;;;-145.18;100.00;46695.56;5070096;28;20079;-64
2022/03/25 00:16:14;;;;;;;46.60;26.07;;;;;;;-145.18;100.00;46715.09;5070034;28;20043;-64
2022/03/25 00:18:40;;;;;;;50.33;23.40;;;;;;;-145.18;100.00;46695.56;5070021;28;20043;-64
2022/03/25 00:21:05;;;;;;;51.20;25.27;;;;;;;-145.18;100.00;46689.69;5069696;28;20040;-64
2022/03/25 00:23:31;;;;;;;51.93;24.77;;;;;;;-145.18;100.00;46642.81;5069781;28;20029;-64
2022/03/25 00:25:57;;;;;;;51.17;25.30;;;;;;;-145.18;100.00;46635.00;5069932;28;20507;-64
2022/03/25 00:28:22;;;;;;;50.90;25.23;;;;;;;-145.18;100.00;46662.34;5069899;28;20054;-64
2022/03/25 00:30:49;;;;;;;54.93;26.00;;;;;;;-145.18;100.00;46664.31;5069905;28;20029;-64
2022/03/25 00:33:16;;;;;;;50.90;25.03;;;;;;;-145.18;100.00;46660.41;5069905;28;20033;-64
2022/03/25 00:35:41;;;;;;;50.90;24.87;;;;;;;-145.18;100.00;46646.72;5069233;28;20782;-64
2022/03/25 00:38:06;;;;;;;46.10;22.93;;;;;;;-145.18;100.00;46619.38;5069495;28;20261;-64
2022/03/25 00:40:32;;;;;;;50.53;24.63;;;;;;;-145.18;100.00;46611.56;5069361;28;20032;-64
2022/03/25 00:42:58;;;;;;;50.77;25.83;;;;;;;-145.18;100.00;46605.69;5070008;28;20078;-64
2022/03/25 00:45:23;;;;;;;61.73;26.67;;;;;;;-145.18;100.00;46623.28;5069586;28;20035;-65
2022/03/25 00:47:49;;;;;;;45.30;24.17;;;;;;;-145.18;100.00;46638.91;5074074;28;20035;-64
2022/03/25 00:50:15;;;;;;;49.93;25.07;;;;;;;-145.18;100.00;46683.84;5072914;28;20090;-64
2022/03/25 00:52:41;;;;;;;50.23;24.87;;;;;;;-145.18;100.00;46656.50;5073455;28;20048;-63
2022/03/25 00:55:07;;;;;;;50.53;24.40;;;;;;;-145.18;100.00;46638.91;5073495;28;20741;-64
2022/03/25 00:57:32;;;;;;;55.27;27.47;;;;;;;-145.18;100.00;46654.53;5071927;28;20036;-64
2022/03/25 00:59:57;;;;;;;54.33;26.53;;;;;;;-145.18;100.00;46670.16;5071825;28;20043;-64
2022/03/25 01:02:23;;;;;;;56.23;26.30;;;;;;;-145.18;100.00;46672.13;5073290;28;20052;-64
2022/03/25 01:04:48;;;;;;;57.27;27.80;;;;;;;-145.18;100.00;46697.50;5073170;28;20039;-64
2022/03/25 01:07:14;;;;;;;49.00;26.63;;;;;;;-145.18;100.00;46677.97;5073605;28;20048;-64
2022/03/25 01:09:39;;;;;;;53.53;26.40;;;;;;;-145.18;100.00;46672.13;5073188;28;20411;-64
2022/03/25 01:12:06;;;;;;;53.83;26.63;;;;;;;-145.18;100.00;46674.06;5072563;28;20094;-64
2022/03/25 01:14:32;;;;;;;60.73;28.27;;;;;;;-145.18;100.00;46652.59;5071344;28;20489;-64
2022/03/25 01:16:57;;;;;;;51.87;27.50;;;;;;;-145.18;100.00;46656.50;5069768;28;20281;-64
2022/03/25 01:19:23;;;;;;;57.13;27.33;;;;;;;-145.18;100.00;46654.53;5071072;28;20043;-64
2022/03/25 01:21:48;;;;;;;52.83;29.07;;;;;;;-145.18;100.00;46693.59;5072302;28;20041;-64
2022/03/25 01:24:14;;;;;;;59.23;28.43;;;;;;;-145.18;100.00;46646.72;5072673;28;20085;-64
2022/03/25 01:26:40;;;;;;;55.33;27.30;;;;;;;-145.18;100.00;46652.59;5054903;28;20047;-64
2022/03/25 01:29:06;;;;;;;54.33;28.03;;;;;;;-145.18;100.00;46666.25;5073143;28;20726;-64
2022/03/25 01:31:32;;;;;;;58.03;28.63;;;;;;;-145.18;100.00;46654.53;5072281;28;20205;-64
2022/03/25 01:33:58;;;;;;;52.23;27.97;;;;;;;-145.18;100.00;46670.16;5072959;28;20260;-64
2022/03/25 01:36:24;;;;;;;57.47;28.03;;;;;;;-145.18;100.00;46631.09;5072709;28;20269;-64
2022/03/25 01:38:49;;;;;;;57.53;29.03;;;;;;;-145.18;100.00;46660.41;5072397;28;20626;-64
2022/03/25 01:41:19;;;;;;;50.87;28.57;;;;;;;-145.18;100.00;46679.94;5072220;28;20040;-64
2022/03/25 01:43:57;;;;;;;53.40;28.73;;;;;;;-145.18;100.00;46679.94;5072930;28;20052;-64
2022/03/25 01:46:23;;;;;;;52.10;27.27;;;;;;;-145.18;100.00;46668.22;5072383;28;20261;-64
2022/03/25 01:48:50;;;;;;;51.00;26.67;;;;;;;-145.18;100.00;46668.22;5072602;28;20261;-64
2022/03/25 01:51:20;;;;;;;53.07;27.57;;;;;;;-145.18;100.00;46644.78;5072561;28;20351;-64
2022/03/25 01:53:47;;;;;;;55.10;30.87;;;;;;;-145.18;100.00;46648.69;5072609;28;20336;-64
2022/03/25 01:56:22;;;;;;;51.57;28.23;;;;;;;-145.18;100.00;46644.78;5071733;28;20679;-64
2022/03/25 01:58:48;;;;;;;61.15;28.95;;;;;;;-145.18;100.00;46681.88;5072703;28;20840;-63
2022/03/25 02:03:48;;;;;;;63.90;29.10;;;;;;;-145.18;100.00;46681.88;5098122;22;20311;-64
2022/03/25 02:06:14;;;;;;;54.97;27.40;;;;;;;-145.18;100.00;46683.84;5004393;28;20038;-64
2022/03/25 02:08:39;;;;;;;59.10;28.47;;;;;;;-145.18;100.00;46672.13;5012284;28;20598;-64
2022/03/25 02:11:05;;;;;;;67.40;31.00;;;;;;;-145.18;100.00;46654.53;5012775;28;20042;-64
2022/03/25 02:13:30;;;;;;;60.53;29.90;;;;;;;-145.18;100.00;46631.09;5011963;28;20038;-64
2022/03/25 02:15:55;;;;;;;65.50;31.20;;;;;;;-145.18;100.00;46644.78;5012394;28;20053;-64
2022/03/25 02:18:21;;;;;;;58.53;29.87;;;;;;;-145.18;100.00;46633.06;5011357;28;20033;-64
2022/03/25 02:20:48;;;;;;;63.80;30.33;;;;;;;-145.18;100.00;46635.00;5012524;28;20026;-64
2022/03/25 02:23:14;;;;;;;63.47;31.97;;;;;;;-145.18;100.00;46617.41;5012548;28;20029;-64
2022/03/25 02:25:41;;;;;;;60.83;30.93;;;;;;;-145.18;100.00;46625.22;5011962;28;20271;-64
2022/03/25 02:28:07;;;;;;;68.33;31.70;;;;;;;-145.18;100.00;46623.28;5012439;28;20066;-64
2022/03/25 02:30:35;;;;;;;68.67;33.07;;;;;;;-145.18;100.00;46627.19;5012553;28;20323;-64
2022/03/25 02:33:02;;;;;;;66.00;32.40;;;;;;;-145.18;100.00;46625.22;5012013;28;20275;-64
2022/03/25 02:35:50;;;;;;;73.30;33.77;;;;;;;-145.18;100.00;46611.56;5012248;28;20781;-64
2022/03/25 02:38:19;;;;;;;68.67;32.67;;;;;;;-145.18;100.00;46613.50;5012002;28;20267;-64
2022/03/25 02:40:45;;;;;;;65.70;34.10;;;;;;;-145.18;100.00;46599.84;5012317;28;20302;-64
2022/03/25 02:43:11;;;;;;;70.47;34.07;;;;;;;-145.18;100.00;46603.75;5012046;28;20271;-64
2022/03/25 02:45:37;;;;;;;69.18;33.03;;;;;;;-145.18;100.00;46609.59;5012263;28;20271;-64
2022/03/25 02:48:03;;;;;;;80.10;35.03;;;;;;;-145.18;100.00;46613.50;5011670;28;20109;-64
2022/03/25 02:50:29;;;;;;;66.03;33.90;;;;;;;-145.18;100.00;46597.88;5012216;28;20530;-64
2022/03/25 02:52:56;;;;;;;66.63;33.63;;;;;;;-145.18;100.00;46595.94;5011399;28;20501;-64
2022/03/25 02:55:21;;;;;;;68.37;35.33;;;;;;;-145.18;100.00;46595.94;5012073;28;20283;-64
2022/03/25 02:57:47;;;;;;;74.57;35.67;;;;;;;-145.18;100.00;46595.94;5011498;28;20329;-64
2022/03/25 03:00:12;;;;;;;71.50;35.23;;;;;;;-145.18;100.00;46603.75;5011740;28;20037;-64
2022/03/25 03:02:38;;;;;;;68.87;34.73;;;;;;;-145.18;100.00;46595.94;5011209;28;20062;-63
2022/03/25 03:05:07;;;;;;;68.30;35.10;;;;;;;-145.18;100.00;46597.88;5011670;28;20113;-64
2022/03/25 03:07:34;;;;;;;67.90;36.27;;;;;;;-145.18;100.00;46590.06;5011466;28;20271;-64
2022/03/25 03:09:59;;;;;;;73.97;34.60;;;;;;;-145.18;100.00;46595.94;5010681;28;20274;-64
2022/03/25 03:12:25;;;;;;;71.77;36.40;;;;;;;-145.18;100.00;46597.88;5011476;28;20283;-64
2022/03/25 03:14:51;;;;;;;78.50;35.77;;;;;;;-145.18;100.00;46611.56;5011533;28;20398;-64
2022/03/25 03:17:16;;;;;;;71.03;36.00;;;;;;;-145.18;100.00;46613.50;5011265;28;20272;-64
2022/03/25 03:19:42;;;;;;;78.93;37.63;;;;;;;-145.18;100.00;46597.88;5011077;28;20069;-64
2022/03/25 03:22:07;;;;;;;76.17;37.00;;;;;;;-145.18;100.00;46599.84;5011215;28;20038;-64
2022/03/25 03:24:33;;;;;;;79.60;37.57;;;;;;;-145.18;100.00;46586.16;5011583;28;20037;-64
2022/03/25 03:26:58;;;;;;;78.60;39.93;;;;;;;-145.18;100.00;46588.13;5011292;28;20041;-64
2022/03/25 03:29:25;;;;;;;77.57;38.83;;;;;;;-145.18;100.00;46584.22;5011253;28;20105;-64
2022/03/25 03:31:50;;;;;;;78.53;39.75;;;;;;;-145.18;100.00;46580.31;5010781;28;20036;-64
2022/03/25 03:34:16;;;;;;;83.47;39.87;;;;;;;-145.18;100.00;46568.59;5011016;28;20379;-64
2022/03/25 03:36:41;;;;;;;81.70;40.77;;;;;;;-145.18;100.00;46574.44;5011408;28;20058;-64
2022/03/25 03:39:07;;;;;;;90.23;43.03;;;;;;;-145.18;100.00;46566.63;5011018;28;20030;-64
2022/03/25 03:41:32;;;;;;;86.57;42.40;;;;;;;-145.18;100.00;46568.59;5001366;28;20098;-64
2022/03/25 03:43:58;;;;;;;86.63;41.73;;;;;;;-145.18;100.00;46568.59;4990753;28;20574;-65
2022/03/25 03:46:23;;;;;;;83.80;40.87;;;;;;;-145.18;100.00;46562.72;4974338;28;20109;-64
2022/03/25 03:48:49;;;;;;;83.00;40.87;;;;;;;-145.18;100.00;46566.63;4991217;28;20062;-64
2022/03/25 03:51:15;;;;;;;91.78;42.50;;;;;;;-145.18;100.00;46572.50;4991399;28;20049;-64
2022/03/25 03:53:41;;;;;;;89.27;45.03;;;;;;;-145.18;100.00;46564.69;4991079;28;20038;-64
2022/03/25 03:56:06;;;;;;;91.30;43.87;;;;;;;-145.18;100.00;46568.59;4991345;28;20466;-64
2022/03/25 03:58:32;;;;;;;100.27;44.90;;;;;;;-145.18;100.00;46562.72;4991225;28;20049;-64
2022/03/25 04:00:57;;;;;;;89.07;43.20;;;;;;;-145.18;100.00;46564.69;4991141;28;20031;-64
2022/03/25 04:03:23;;;;;;;103.47;46.93;;;;;;;-145.18;100.00;46560.78;5013695;28;20060;-64
2022/03/25 04:05:48;;;;;;;92.33;44.50;;;;;;;-145.18;100.00;46566.63;5030745;28;20038;-65
2022/03/25 04:08:14;;;;;;;88.03;45.27;;;;;;;-145.18;100.00;46562.72;5030237;28;20038;-64
2022/03/25 04:10:39;;;;;;;91.27;45.27;;;;;;;-145.18;100.00;46562.72;5030744;28;20048;-64
2022/03/25 04:13:05;;;;;;;90.27;44.13;;;;;;;-145.18;100.00;46562.72;5030137;28;20119;-64
2022/03/25 04:15:31;;;;;;;90.57;44.23;;;;;;;-145.18;100.00;46564.69;5030679;28;20025;-64
2022/03/25 04:17:57;;;;;;;93.73;45.63;;;;;;;-145.18;100.00;46572.50;5029959;28;20734;-64
2022/03/25 04:20:22;;;;;;;88.30;44.93;;;;;;;-145.18;100.00;46562.72;5029481;28;20088;-64
2022/03/25 04:22:47;;;;;;;99.97;45.40;;;;;;;-145.18;100.00;46566.63;5030159;28;20421;-64
2022/03/25 04:25:14;;;;;;;95.00;45.73;;;;;;;-145.18;100.00;46560.78;5030649;28;20168;-64
2022/03/25 04:27:53;;;;;;;93.35;47.00;;;;;;;-145.18;100.00;46570.53;5029845;28;20041;-64
2022/03/25 04:30:23;;;;;;;89.80;44.20;;;;;;;-145.18;100.00;46566.63;5030201;28;20526;-64
2022/03/25 04:32:48;;;;;;;94.63;46.45;;;;;;;-145.18;100.00;46560.78;5029942;28;20118;-64
2022/03/25 04:35:14;;;;;;;92.20;46.17;;;;;;;-145.18;100.00;46562.72;5030245;28;20533;-64
2022/03/25 04:37:39;;;;;;;95.67;46.13;;;;;;;-145.18;100.00;46558.81;5029855;28;20132;-64
2022/03/25 04:40:05;;;;;;;97.40;47.17;;;;;;;-145.18;100.00;46560.78;5030217;28;20462;-64
2022/03/25 04:42:31;;;;;;;100.95;48.10;;;;;;;-145.18;100.00;46554.91;5029654;28;20079;-64
2022/03/25 04:44:56;;;;;;;97.83;49.83;;;;;;;-145.18;100.00;46560.78;5030005;28;20038;-64
2022/03/25 04:47:21;;;;;;;99.30;47.93;;;;;;;-145.18;100.00;46549.06;5030176;28;20025;-64
2022/03/25 04:49:47;;;;;;;103.23;49.77;;;;;;;-145.18;100.00;46551.00;5011876;28;20120;-64
2022/03/25 04:52:13;;;;;;;99.57;48.13;;;;;;;-145.18;100.00;46549.06;5029848;28;20437;-64
2022/03/25 04:54:39;;;;;;;101.85;47.88;;;;;;;-145.18;100.00;46551.00;5030130;28;20460;-63
2022/03/25 04:57:04;;;;;;;103.20;49.63;;;;;;;-145.18;100.00;46551.00;5030080;28;20120;-63
2022/03/25 04:59:30;;;;;;;94.23;48.47;;;;;;;-145.18;100.00;46554.91;5029765;28;20434;-63
2022/03/25 05:01:55;;;;;;;107.37;50.50;;;;;;;-145.18;100.00;46554.91;5029491;28;20101;-63
2022/03/25 05:04:21;;;;;;;104.93;49.00;;;;;;;-145.18;100.00;46543.19;5011908;28;20077;-63
2022/03/25 05:06:47;;;;;;;102.43;49.40;;;;;;;-145.18;100.00;46549.06;5029715;28;20038;-63
2022/03/25 05:09:13;;;;;;;95.10;48.43;;;;;;;-145.18;100.00;46551.00;5023400;28;20077;-64
2022/03/25 05:11:39;;;;;;;99.45;49.13;;;;;;;-145.18;100.00;46552.97;5009381;28;20126;-64
2022/03/25 05:14:04;;;;;;;108.10;51.27;;;;;;;-145.18;100.00;46551.00;5008790;28;20445;-64
2022/03/25 05:16:30;;;;;;;99.43;48.90;;;;;;;-145.18;100.00;46552.97;5009585;28;20116;-64
2022/03/25 05:18:55;;;;;;;104.23;49.87;;;;;;;-145.18;100.00;46547.09;5008883;28;20029;-64
2022/03/25 05:21:21;;;;;;;102.73;50.57;;;;;;;-145.18;100.00;46545.16;4999103;28;20033;-64
2022/03/25 05:23:46;;;;;;;108.37;50.33;;;;;;;-145.18;100.00;46547.09;4961256;28;20046;-64
2022/03/25 05:26:11;;;;;;;102.47;49.10;;;;;;;-145.18;100.00;46545.16;5006821;28;20041;-64
2022/03/25 05:28:37;;;;;;;105.40;51.40;;;;;;;-145.18;100.00;46554.91;4991365;28;20034;-64
2022/03/25 05:31:03;;;;;;;104.63;50.77;;;;;;;-145.18;100.00;46543.19;4992173;28;20034;-64
2022/03/25 05:33:28;;;;;;;104.40;51.53;;;;;;;-145.18;100.00;46547.09;5012983;28;20153;-64
2022/03/25 05:35:53;;;;;;;105.27;52.73;;;;;;;-145.18;100.00;46547.09;4995773;28;20096;-64
2022/03/25 05:38:19;;;;;;;114.20;53.30;;;;;;;-145.18;100.00;46535.38;5012951;28;20045;-64
2022/03/25 05:40:44;;;;;;;104.83;51.30;;;;;;;-145.18;100.00;46549.06;5013002;28;20046;-64
2022/03/25 05:43:10;;;;;;;111.63;52.83;;;;;;;-145.18;100.00;46543.19;5011969;28;20040;-64
2022/03/25 05:45:35;;;;;;;112.10;53.43;;;;;;;-145.18;100.00;46535.38;5010175;28;20045;-64
2022/03/25 05:48:01;;;;;;;113.90;54.17;;;;;;;-145.18;100.00;46543.19;5022443;28;20037;-64
2022/03/25 05:50:26;;;;;;;110.80;54.47;;;;;;;-145.18;100.00;46541.25;5033202;28;20029;-64
2022/03/25 05:52:52;;;;;;;108.23;52.07;;;;;;;-145.18;100.00;46535.38;5031457;28;20478;-64
2022/03/25 05:55:17;;;;;;;117.97;54.03;;;;;;;-145.18;100.00;46533.44;5011936;28;20446;-64
2022/03/25 05:57:43;;;;;;;109.57;53.83;;;;;;;-145.18;100.00;46539.28;5010773;28;20034;-64
2022/03/25 06:00:10;;;;;;;109.00;55.40;;;;;;;-145.18;100.00;46541.25;5011961;28;20077;-64
2022/03/25 06:02:36;;;;;;;112.45;55.40;;;;;;;-145.18;100.00;46535.38;5001732;28;20450;-64
2022/03/25 06:05:01;;;;;;;117.97;53.53;;;;;;;-145.18;100.00;46537.34;5012625;28;20068;-64
2022/03/25 06:07:35;;;;;;;111.33;54.47;;;;;;;-145.18;100.00;46531.47;5012997;28;20048;-64
2022/03/25 06:10:00;;;;;;;117.18;56.70;;;;;;;-145.18;100.00;46533.44;4994741;28;20423;-64
2022/03/25 06:12:26;;;;;;;116.27;56.60;;;;;;;-145.18;100.00;46529.53;5012703;28;20037;-64
2022/03/25 06:14:51;;;;;;;114.27;53.87;;;;;;;-145.18;100.00;46529.53;5012349;28;20030;-64
2022/03/25 06:17:16;;;;;;;114.57;55.80;;;;;;;-145.18;100.00;46525.63;4995140;28;20117;-64
2022/03/25 06:19:42;;;;;;;119.70;57.00;;;;;;;-145.18;100.00;46521.72;4994515;28;20068;-64
2022/03/25 06:22:07;;;;;;;125.53;57.03;;;;;;;-145.18;100.00;46529.53;5012539;28;20061;-64
2022/03/25 06:24:32;;;;;;;120.30;56.27;;;;;;;-145.18;100.00;46525.63;5012587;28;20509;-64
2022/03/25 06:26:58;;;;;;;113.50;55.63;;;;;;;-145.18;100.00;46531.47;5012439;28;20034;-64
2022/03/25 06:29:23;;;;;;;120.33;57.50;;;;;;;-145.18;100.00;46531.47;5012245;28;20105;-64
2022/03/25 06:31:49;;;;;;;126.07;56.30;;;;;;;-145.18;100.00;46537.34;5011985;28;20148;-64
2022/03/25 06:34:20;;;;;;;115.70;59.13;;;;;;;-145.18;100.00;46531.47;5012023;28;20457;-64
2022/03/25 06:36:48;;;;;;;122.63;58.80;;;;;;;-145.18;100.00;46531.47;5012354;28;20398;-64
2022/03/25 06:39:13;;;;;;;113.90;58.90;;;;;;;-145.18;100.00;46531.47;5011111;28;20770;-64
2022/03/25 06:41:39;;;;;;;126.63;58.77;;;;;;;-145.18;100.00;46525.63;5004352;28;20033;-64
2022/03/25 06:44:05;;;;;;;124.67;61.93;;;;;;;-145.18;100.00;46527.56;5010076;28;20034;-64
2022/03/25 06:46:31;;;;;;;117.37;57.97;;;;;;;-145.18;100.00;46529.53;5011604;28;20100;-64
2022/03/25 06:48:57;;;;;;;122.83;60.77;;;;;;;-145.18;100.00;46539.28;5010926;28;20042;-64
2022/03/25 06:51:23;;;;;;;123.03;60.17;;;;;;;-145.18;100.00;46533.44;5011245;28;20398;-64
2022/03/25 06:53:49;;;;;;;121.67;61.60;;;;;;;-145.18;100.00;46535.38;5010993;28;20781;-64
2022/03/25 06:56:14;;;;;;;126.73;62.23;;;;;;;-145.18;100.00;46541.25;5011300;28;20030;-64
2022/03/25 06:58:40;;;;;;;123.70;60.80;;;;;;;-145.18;100.00;46537.34;5011154;28;20034;-64
2022/03/25 07:01:06;;;;;;;122.77;61.40;;;;;;;-145.18;100.00;46541.25;5011106;28;20315;-64
2022/03/25 07:03:33;;;;;;;120.00;60.73;;;;;;;-145.18;100.00;46535.38;5010526;28;20054;-64
2022/03/25 07:06:02;;;;;;;122.67;61.50;;;;;;;-145.18;100.00;46539.28;5010575;28;20033;-64
2022/03/25 07:08:29;;;;;;;123.50;61.27;;;;;;;-145.18;100.00;46533.44;5007743;28;20383;-64
2022/03/25 07:10:55;;;;;;;129.47;63.67;;;;;;;-145.18;100.00;46543.19;5010144;28;20299;-64
2022/03/25 07:13:20;;;;;;;125.93;59.93;;;;;;;-145.18;100.00;46529.53;5010526;28;20275;-64
2022/03/25 07:15:46;;;;;;;111.23;59.70;;;;;;;-145.18;100.00;46541.25;5009538;28;20783;-64
2022/03/25 07:18:11;;;;;;;128.77;63.60;;;;;;;-145.18;100.00;46547.09;5008857;28;20034;-64
2022/03/25 07:20:37;;;;;;;129.10;62.63;;;;;;;-145.18;100.00;46545.16;5010544;28;20062;-64
2022/03/25 07:23:02;;;;;;;123.27;61.03;;;;;;;-145.18;100.00;46541.25;5010441;28;20037;-64
2022/03/25 07:25:31;;;;;;;122.33;61.47;;;;;;;-145.18;100.00;46551.00;4993231;28;20034;-64
2022/03/25 07:27:57;;;;;;;122.63;61.47;;;;;;;-145.18;100.00;46552.97;5010238;28;20046;-64
2022/03/25 07:30:22;;;;;;;122.17;62.07;;;;;;;-145.18;100.00;46554.91;5010621;28;20301;-64
2022/03/25 07:32:48;;;;;;;128.30;64.67;;;;;;;-145.18;100.00;46556.88;5010667;28;20330;-64
2022/03/25 07:35:14;;;;;;;126.10;63.80;;;;;;;-145.18;100.00;46570.53;5010480;28;20441;-64
2022/03/25 07:37:41;;;;;;;119.80;63.13;;;;;;;-145.18;100.00;46574.44;5009064;28;20029;-64
2022/03/25 07:40:09;;;;;;;125.93;62.53;;;;;;;-145.18;100.00;46568.59;5010163;28;20390;-64
2022/03/25 07:42:35;;;;;;;120.93;65.40;;;;;;;-145.18;100.00;46570.53;5006863;28;20259;-64
2022/03/25 07:45:01;;;;;;;125.07;65.50;;;;;;;-145.18;100.00;46566.63;5009138;28;20636;-64
2022/03/25 07:47:27;;;;;;;128.30;66.53;;;;;;;-145.18;100.00;46566.63;5010471;28;20740;-64
2022/03/25 07:49:52;;;;;;;126.07;64.63;;;;;;;-145.18;100.00;46601.78;5009667;28;20267;-64
2022/03/25 07:52:18;;;;;;;123.17;63.97;;;;;;;-145.18;100.00;46592.03;5009866;28;20076;-64
2022/03/25 07:54:43;;;;;;;124.13;64.43;;;;;;;-145.18;100.00;46597.88;5009613;28;20056;-64
2022/03/25 07:57:09;;;;;;;126.57;63.90;;;;;;;-145.18;100.00;46588.13;5007917;28;20491;-64
2022/03/25 07:59:34;;;;;;;115.93;62.27;;;;;;;-145.18;100.00;46607.66;5007234;28;20046;-64
2022/03/25 08:02:00;;;;;;;112.17;61.17;;;;;;;-145.18;100.00;46613.50;5007880;28;20545;-64
2022/03/25 08:04:25;;;;;;;118.13;62.37;;;;;;;-145.18;100.00;46638.91;5008783;28;20049;-64
2022/03/25 08:06:52;;;;;;;116.57;60.93;;;;;;;-145.18;100.00;46648.69;5007471;28;20033;-64
2022/03/25 08:09:17;;;;;;;109.10;61.70;;;;;;;-145.18;100.00;46629.13;5009228;28;20029;-64
2022/03/25 08:11:46;;;;;;;118.83;64.67;;;;;;;-145.18;100.00;46621.31;5010281;28;20317;-64
2022/03/25 08:14:15;;;;;;;107.70;60.03;;;;;;;-145.18;100.00;46644.78;5009720;28;20034;-64
2022/03/25 08:16:45;;;;;;;114.50;58.60;;;;;;;-145.18;100.00;46664.31;5010016;28;20752;-64
2022/03/25 08:19:11;;;;;;;112.87;59.60;;;;;;;-145.18;100.00;46652.59;5009689;28;20814;-64
2022/03/25 08:21:36;;;;;;;110.53;61.33;;;;;;;-145.18;100.00;46648.69;5009887;28;20752;-64
2022/03/25 08:29:30;;;;;;;115.63;60.37;;;;;;;-145.18;100.00;46672.13;5008943;28;20783;-64
2022/03/25 08:31:55;;;;;;;105.60;60.97;;;;;;;-145.18;100.00;46676.03;5009875;28;20291;-64
2022/03/25 08:34:21;;;;;;;108.40;57.97;;;;;;;-145.18;100.00;46668.22;5009569;28;20034;-64
2022/03/25 08:36:48;;;;;;;101.57;57.60;;;;;;;-145.18;100.00;46705.31;5008953;28;20041;-65
2022/03/25 08:39:14;;;;;;;101.73;56.97;;;;;;;-145.18;100.00;47010.06;5009052;28;20030;-64
2022/03/25 08:41:40;;;;;;;108.03;57.03;;;;;;;-145.18;100.00;46734.63;5008405;28;20287;-64
2022/03/25 08:44:06;;;;;;;94.13;54.10;;;;;;;-145.18;100.00;46947.53;5008695;28;20357;-64
2022/03/25 08:46:34;;;;;;;98.50;57.33;;;;;;;-145.18;100.00;47023.72;5009271;28;20041;-64
2022/03/25 08:49:00;;;;;;;94.27;56.97;;;;;;;-145.18;100.00;46908.47;5008760;28;20271;-64
2022/03/25 08:51:26;;;;;;;92.80;53.90;;;;;;;-145.18;100.00;47326.53;5010078;28;20637;-64
2022/03/25 08:53:51;;;;;;;93.33;53.90;;;;;;;-145.18;100.00;47293.31;5008457;28;20342;-64
2022/03/25 08:56:18;;;;;;;91.93;49.00;;;;;;;-145.18;100.00;47365.63;5009070;28;20046;-64
2022/03/25 08:58:44;;;;;;;84.77;45.13;;;;;;;-145.18;100.00;47320.69;5008756;28;20084;-64
2022/03/25 09:01:09;;;;;;;88.37;53.57;;;;;;;-145.18;100.00;47338.25;5009345;28;20263;-64
2022/03/25 09:03:35;;;;;;;87.40;51.30;;;;;;;-145.18;100.00;47314.81;5008162;28;20056;-65
2022/03/25 09:06:00;;;;;;;87.97;52.30;;;;;;;-145.18;100.00;47310.91;5009745;28;20029;-64
2022/03/25 09:08:25;;;;;;;81.47;50.03;;;;;;;-145.18;100.00;47285.50;5012406;28;20025;-65
2022/03/25 09:10:53;;;;;;;88.13;50.47;;;;;;;-145.18;100.00;47271.84;5012598;28;20606;-64
2022/03/25 09:13:19;;;;;;;84.73;46.77;;;;;;;-145.18;100.00;47262.06;5013456;28;20402;-65
2022/03/25 09:15:45;;;;;;;87.03;51.10;;;;;;;-145.18;100.00;47252.31;5013194;28;20346;-64
2022/03/25 09:18:10;;;;;;;81.73;47.63;;;;;;;-145.18;100.00;47238.63;5011910;28;20279;-65
2022/03/25 09:20:36;;;;;;;90.37;49.17;;;;;;;-145.18;100.00;47230.81;5013146;28;20057;-64
2022/03/25 09:23:01;;;;;;;84.17;48.43;;;;;;;-145.18;100.00;47219.09;4995180;28;20037;-64
2022/03/25 09:25:27;;;;;;;86.93;50.43;;;;;;;-145.18;100.00;47252.31;5013070;28;20493;-65
2022/03/25 09:27:52;;;;;;;80.73;47.23;;;;;;;-145.18;100.00;47234.72;5013122;28;20096;-65
2022/03/25 09:30:18;;;;;;;80.97;48.37;;;;;;;-145.18;100.00;47219.09;5011548;28;20137;-65
2022/03/25 09:32:43;;;;;;;83.50;48.83;;;;;;;-145.18;100.00;47226.91;5013275;28;20061;-64
2022/03/25 09:35:09;;;;;;;83.37;47.93;;;;;;;-145.18;100.00;47236.66;4995119;28;20125;-65
2022/03/25 09:37:40;;;;;;;82.63;48.47;;;;;;;-145.18;100.00;47226.91;5011144;28;20132;-64
2022/03/25 09:40:09;;;;;;;89.83;47.37;;;;;;;-145.18;100.00;47215.19;5012831;28;20026;-65
2022/03/25 09:42:36;;;;;;;85.20;50.17;;;;;;;-145.18;100.00;47226.91;5012937;28;20838;-64
2022/03/25 09:45:03;;;;;;;82.23;49.03;;;;;;;-145.18;100.00;47226.91;5011863;28;20353;-65
2022/03/25 09:47:32;;;;;;;85.60;50.30;;;;;;;-145.18;100.00;47226.91;5012882;28;20287;-65
2022/03/25 09:50:02;;;;;;;86.90;48.30;;;;;;;-145.18;100.00;47215.19;4996425;28;20307;-65
2022/03/25 09:52:32;;;;;;;88.30;48.97;;;;;;;-145.18;100.00;47219.09;4994547;28;20334;-65
2022/03/25 09:54:58;;;;;;;80.13;48.17;;;;;;;-145.18;100.00;47191.75;5011232;28;20299;-65
2022/03/25 09:57:26;;;;;;;81.60;46.73;;;;;;;-145.18;100.00;47236.66;5012422;28;20632;-65
2022/03/25 09:59:52;;;;;;;77.30;46.57;;;;;;;-145.18;100.00;47207.38;4994779;28;20308;-65
2022/03/25 10:02:17;;;;;;;82.63;47.53;;;;;;;-145.18;100.00;47203.47;5012504;28;20283;-65
2022/03/25 10:04:45;;;;;;;81.97;48.73;;;;;;;-145.18;100.00;47207.38;5011501;28;20294;-65
2022/03/25 10:07:16;;;;;;;80.03;47.67;;;;;;;-145.18;100.00;47195.66;5004981;28;20030;-65
2022/03/25 10:09:43;;;;;;;79.17;45.70;;;;;;;-145.18;100.00;47193.69;5011806;28;20282;-65
2022/03/25 10:12:27;;;;;;;89.03;47.73;;;;;;;-145.18;100.00;47187.84;5011852;28;20309;-65
2022/03/25 10:15:20;;;;;;;77.60;47.63;;;;;;;-145.18;100.00;47180.03;5010664;28;20034;-65
2022/03/25 10:18:06;;;;;;;72.73;46.97;;;;;;;-145.18;100.00;47180.03;5009508;28;20264;-65
2022/03/25 10:20:36;;;;;;;75.80;47.10;;;;;;;-145.18;100.00;47162.44;5012216;28;20026;-65
2022/03/25 10:23:12;;;;;;;71.30;45.17;;;;;;;-145.18;100.00;47176.09;5011950;28;20112;-65
2022/03/25 10:25:37;;;;;;;;;;;;;;;-145.18;100.00;47170.25;5010664;28;20076;-65
2022/03/25 10:28:05;;;;;;;70.03;39.33;;;;;;;-145.18;100.00;47183.94;5010080;28;20382;-65
2022/03/25 10:30:40;;;;;;;66.80;39.53;;;;;;;-145.18;100.00;47168.28;5010284;28;20034;-65
2022/03/25 10:33:10;;;;;;;59.37;37.70;;;;;;;-145.18;100.00;47152.66;5011020;28;20038;-65
2022/03/25 10:35:58;;;;;;;64.40;36.43;;;;;;;-145.18;100.00;47164.38;5011429;28;20049;-67
2022/03/25 10:38:26;;;;;;;63.30;38.23;;;;;;;-145.18;100.00;47172.19;5012302;28;20124;-65
2022/03/25 10:40:53;;;;;;;63.57;32.93;;;;;;;-145.18;100.00;47164.38;5011822;28;20056;-65
2022/03/25 10:43:19;;;;;;;55.37;33.00;;;;;;;-145.18;100.00;47187.84;5011778;28;20108;-65
2022/03/25 10:45:45;;;;;;;52.37;31.67;;;;;;;-145.18;100.00;47152.66;5011770;28;20026;-65
2022/03/25 10:48:19;;;;;;;62.20;34.90;;;;;;;-145.18;100.00;47162.44;5011854;28;20049;-65
2022/03/25 10:51:05;;;;;;;62.40;35.80;;;;;;;-145.18;100.00;47152.66;5011569;28;20066;-66
2022/03/25 10:53:35;;;;;;;55.03;29.75;;;;;;;-145.18;100.00;47166.34;5011751;28;20061;-65
2022/03/25 10:56:10;;;;;;;60.07;33.70;;;;;;;-145.18;100.00;47176.09;5011678;28;20030;-65
2022/03/25 10:58:36;;;;;;;60.42;35.83;;;;;;;-145.18;100.00;47148.75;5010794;28;20030;-65